createdAt,value
2023-03-05T00:00:02.401Z,7.11
2023-03-05T00:01:35.413Z,7.10
2023-03-05T00:03:08.144Z,7.12
2023-03-05T00:04:40.086Z,7.12
2023-03-05T00:06:11.768Z,7.10
2023-03-05T00:07:43.737Z,7.06
2023-03-05T00:09:15.332Z,7.05
2023-03-05T00:10:55.019Z,7.08
2023-03-05T00:12:26.953Z,7.05
2023-03-05T00:13:58.818Z,7.04
2023-03-05T00:15:30.446Z,7.09
2023-03-05T00:17:03.586Z,7.08
2023-03-05T00:18:35.506Z,7.12
2023-03-05T00:20:07.837Z,7.13
2023-03-05T00:21:40.638Z,7.12
2023-03-05T00:23:12.436Z,7.10
2023-03-05T00:24:44.136Z,7.11
2023-03-05T00:26:15.825Z,7.16
2023-03-05T00:27:47.665Z,7.15
2023-03-05T00:29:21.852Z,7.17
2023-03-05T00:30:53.811Z,7.15
2023-03-05T00:32:26.935Z,7.15
2023-03-05T00:33:59.435Z,7.14
2023-03-05T00:35:31.226Z,7.14
2023-03-05T00:37:02.847Z,7.11
2023-03-05T00:38:35.092Z,7.10
2023-03-05T00:40:07.602Z,7.05
2023-03-05T00:41:41.008Z,7.06
2023-03-05T00:43:12.753Z,7.04
2023-03-05T00:44:44.492Z,7.08
2023-03-05T00:46:18.996Z,7.11
2023-03-05T00:47:51.994Z,7.08
2023-03-05T00:49:23.652Z,7.10
2023-03-05T00:50:55.733Z,7.07
2023-03-05T00:52:27.732Z,7.05
2023-03-05T00:53:59.311Z,7.05
2023-03-05T00:55:30.988Z,7.07
2023-03-05T00:57:02.719Z,7.10
2023-03-05T00:58:34.343Z,7.09
2023-03-05T01:00:07.452Z,7.03
2023-03-05T01:01:39.536Z,7.02
2023-03-05T01:03:12.580Z,6.98
2023-03-05T01:04:48.104Z,6.93
2023-03-05T01:06:20.622Z,6.91
2023-03-05T01:07:52.610Z,6.87
2023-03-05T01:09:25.591Z,6.87
2023-03-05T01:10:57.328Z,6.93
2023-03-05T01:12:28.905Z,6.93
2023-03-05T01:14:01.229Z,6.95
2023-03-05T01:15:34.249Z,6.93
2023-03-05T01:17:06.017Z,6.81
2023-03-05T01:18:39.395Z,6.60
2023-03-05T01:20:13.337Z,6.61
2023-03-05T01:21:45.049Z,6.58
2023-03-05T01:23:16.733Z,6.60
2023-03-05T01:24:48.364Z,6.61
2023-03-05T01:26:20.226Z,6.60
2023-03-05T01:27:52.863Z,6.66
2023-03-05T01:29:24.783Z,6.66
2023-03-05T01:30:56.426Z,6.71
2023-03-05T01:32:28.038Z,6.72
2023-03-05T01:34:01.317Z,6.73
2023-03-05T01:35:33.011Z,6.80
2023-03-05T01:37:04.854Z,6.80
2023-03-05T01:38:36.487Z,6.75
2023-03-05T01:40:08.665Z,6.80
2023-03-05T01:41:40.288Z,6.82
2023-03-05T01:43:23.343Z,6.87
2023-03-05T01:45:02.633Z,6.88
2023-03-05T01:46:35.444Z,6.83
2023-03-05T01:48:07.097Z,6.82
2023-03-05T01:49:40.300Z,6.82
2023-03-05T01:51:12.506Z,6.87
2023-03-05T01:52:49.136Z,6.90
2023-03-05T01:54:22.442Z,6.89
2023-03-05T01:55:56.237Z,6.91
2023-03-05T01:57:28.978Z,6.91
2023-03-05T01:59:03.576Z,6.94
2023-03-05T02:00:37.628Z,6.92
2023-03-05T02:02:09.241Z,6.90
2023-03-05T02:03:41.518Z,6.92
2023-03-05T02:05:16.982Z,6.95
2023-03-05T02:06:49.804Z,6.90
2023-03-05T02:08:21.984Z,6.82
2023-03-05T02:09:53.609Z,6.76
2023-03-05T02:11:25.364Z,6.75
2023-03-05T02:12:59.545Z,6.68
2023-03-05T02:14:31.486Z,6.67
2023-03-05T02:16:03.218Z,6.68
2023-03-05T02:17:34.999Z,6.73
2023-03-05T02:19:09.074Z,6.68
2023-03-05T02:20:46.213Z,6.62
2023-03-05T02:22:20.380Z,6.61
2023-03-05T02:23:51.996Z,6.61
2023-03-05T02:25:24.493Z,6.66
2023-03-05T02:26:56.126Z,6.65
2023-03-05T02:28:30.439Z,6.69
2023-03-05T02:30:02.419Z,6.65
2023-03-05T02:31:34.164Z,6.68
2023-03-05T02:33:06.109Z,6.67
2023-03-05T02:34:37.795Z,6.72
2023-03-05T02:36:09.592Z,6.71
2023-03-05T02:37:45.657Z,6.75
2023-03-05T02:39:17.606Z,6.83
2023-03-05T02:40:49.262Z,6.90
2023-03-05T02:42:22.234Z,6.97
2023-03-05T02:43:53.912Z,7.01
2023-03-05T02:45:25.587Z,7.01
2023-03-05T02:46:57.322Z,7.07
2023-03-05T02:48:29.978Z,7.12
2023-03-05T02:50:01.812Z,7.14
2023-03-05T02:51:33.654Z,7.17
2023-03-05T02:53:07.628Z,7.19
2023-03-05T02:54:39.152Z,7.26
2023-03-05T02:56:10.812Z,7.27
2023-03-05T02:57:42.427Z,7.31
2023-03-05T02:59:14.074Z,7.27
2023-03-05T03:00:46.787Z,7.27
2023-03-05T03:02:18.684Z,7.25
2023-03-05T03:03:50.225Z,7.20
2023-03-05T03:05:21.867Z,7.18
2023-03-05T03:06:53.484Z,7.11
2023-03-05T03:08:26.464Z,6.97
2023-03-05T03:09:58.150Z,6.88
2023-03-05T03:11:29.904Z,6.83
2023-03-05T03:13:01.763Z,6.77
2023-03-05T03:14:33.877Z,6.69
2023-03-05T03:16:06.326Z,6.63
2023-03-05T03:17:38.018Z,6.61
2023-03-05T03:19:09.594Z,6.54
2023-03-05T03:20:41.294Z,6.48
2023-03-05T03:22:13.722Z,6.48
2023-03-05T03:23:46.785Z,6.46
2023-03-05T03:25:19.697Z,6.46
2023-03-05T03:26:51.418Z,6.46
2023-03-05T03:28:23.003Z,6.47
2023-03-05T03:29:54.830Z,6.50
2023-03-05T03:31:26.481Z,6.46
2023-03-05T03:32:57.997Z,6.45
2023-03-05T03:34:29.535Z,6.41
2023-03-05T03:36:01.161Z,6.46
2023-03-05T03:37:32.833Z,6.50
2023-03-05T03:39:06.025Z,6.57
2023-03-05T03:40:38.302Z,6.59
2023-03-05T03:42:09.893Z,6.54
2023-03-05T03:43:41.807Z,6.46
2023-03-05T03:45:13.714Z,6.45
2023-03-05T03:46:47.023Z,6.44
2023-03-05T03:48:18.644Z,6.43
2023-03-05T03:49:53.392Z,6.38
2023-03-05T03:51:24.968Z,6.33
2023-03-05T03:52:56.551Z,6.34
2023-03-05T03:54:29.456Z,6.41
2023-03-05T03:56:01.062Z,6.47
2023-03-05T03:57:33.481Z,6.51
2023-03-05T03:59:05.319Z,6.58
2023-03-05T04:00:37.131Z,6.63
2023-03-05T04:02:09.801Z,6.71
2023-03-05T04:03:43.082Z,6.75
2023-03-05T04:05:14.683Z,6.83
2023-03-05T04:06:46.357Z,6.88
2023-03-05T04:08:17.904Z,6.91
2023-03-05T04:09:51.471Z,6.90
2023-03-05T04:11:23.071Z,6.89
2023-03-05T04:12:54.664Z,6.89
2023-03-05T04:14:27.288Z,6.88
2023-03-05T04:15:59.349Z,6.86
2023-03-05T04:17:30.966Z,6.87
2023-03-05T04:19:02.687Z,6.87
2023-03-05T04:20:34.294Z,6.87
2023-03-05T04:22:06.017Z,6.93
2023-03-05T04:23:37.621Z,7.00
2023-03-05T04:25:10.800Z,7.12
2023-03-05T04:26:42.477Z,7.22
2023-03-05T04:28:14.147Z,7.30
2023-03-05T04:29:45.748Z,7.32
2023-03-05T04:31:17.496Z,7.35
2023-03-05T04:32:49.077Z,7.33
2023-03-05T04:34:20.668Z,7.37
2023-03-05T04:35:52.481Z,7.44
2023-03-05T04:37:24.087Z,7.46
2023-03-05T04:38:55.647Z,7.41
2023-03-05T04:40:28.946Z,7.39
2023-03-05T04:42:00.700Z,7.37
2023-03-05T04:43:32.296Z,7.35
2023-03-05T04:45:04.284Z,7.30
2023-03-05T04:46:35.871Z,7.27
2023-03-05T04:48:07.507Z,7.23
2023-03-05T04:49:39.110Z,7.20
2023-03-05T04:51:10.667Z,7.21
2023-03-05T04:52:43.291Z,7.17
2023-03-05T04:54:14.970Z,7.14
2023-03-05T04:55:51.896Z,7.10
2023-03-05T04:57:24.156Z,7.03
2023-03-05T04:58:55.848Z,7.01
2023-03-05T05:00:27.584Z,7.04
2023-03-05T05:01:59.257Z,7.13
2023-03-05T05:03:31.188Z,7.16
2023-03-05T05:05:02.842Z,7.18
2023-03-05T05:06:34.571Z,7.23
2023-03-05T05:08:06.213Z,7.28
2023-03-05T05:09:37.813Z,7.33
2023-03-05T05:11:13.342Z,7.26
2023-03-05T05:12:45.027Z,7.17
2023-03-05T05:14:17.033Z,7.15
2023-03-05T05:15:49.088Z,7.18
2023-03-05T05:17:21.077Z,7.26
2023-03-05T05:18:52.943Z,7.34
2023-03-05T05:20:24.528Z,7.38
2023-03-05T05:21:56.120Z,7.43
2023-03-05T05:23:27.832Z,7.47
2023-03-05T05:24:59.546Z,7.47
2023-03-05T05:26:32.527Z,7.48
2023-03-05T05:28:04.336Z,7.46
2023-03-05T05:29:36.090Z,7.42
2023-03-05T05:31:08.051Z,7.39
2023-03-05T05:32:39.680Z,7.42
2023-03-05T05:34:11.241Z,7.46
2023-03-05T05:35:43.033Z,7.42
2023-03-05T05:37:14.935Z,7.38
2023-03-05T05:38:46.872Z,7.33
2023-03-05T05:40:18.690Z,7.30
2023-03-05T05:41:52.359Z,7.25
2023-03-05T05:43:23.946Z,7.25
2023-03-05T05:44:55.598Z,7.26
2023-03-05T05:46:28.018Z,7.26
2023-03-05T05:47:59.623Z,7.22
2023-03-05T05:49:31.564Z,7.24
2023-03-05T05:51:05.950Z,7.23
2023-03-05T05:52:37.538Z,7.17
2023-03-05T05:54:10.641Z,7.10
2023-03-05T05:55:42.193Z,7.09
2023-03-05T05:57:15.539Z,7.08
2023-03-05T05:58:49.070Z,7.09
2023-03-05T06:00:21.016Z,7.12
2023-03-05T06:01:52.632Z,7.13
2023-03-05T06:03:24.328Z,7.11
2023-03-05T06:04:58.173Z,7.11
2023-03-05T06:06:30.165Z,7.03
2023-03-05T06:08:01.754Z,6.99
2023-03-05T06:09:34.985Z,6.96
2023-03-05T06:11:07.081Z,6.97
2023-03-05T06:12:42.414Z,6.99
2023-03-05T06:14:14.359Z,6.97
2023-03-05T06:15:46.039Z,6.94
2023-03-05T06:17:28.628Z,6.86
2023-03-05T06:19:04.455Z,6.89
2023-03-05T06:20:36.171Z,6.96
2023-03-05T06:22:07.845Z,7.08
2023-03-05T06:23:39.608Z,7.17
2023-03-05T06:25:13.751Z,7.25
2023-03-05T06:26:46.722Z,7.26
2023-03-05T06:28:20.202Z,7.23
2023-03-05T06:29:52.339Z,7.16
2023-03-05T06:31:27.761Z,6.99
2023-03-05T06:33:00.077Z,6.89
2023-03-05T06:34:31.678Z,6.82
2023-03-05T06:36:03.784Z,6.77
2023-03-05T06:37:35.492Z,6.76
2023-03-05T06:39:07.416Z,6.76
2023-03-05T06:40:39.798Z,6.86
2023-03-05T06:42:11.652Z,6.93
2023-03-05T06:43:45.559Z,7.04
2023-03-05T06:45:17.280Z,7.17
2023-03-05T06:46:48.919Z,7.24
2023-03-05T06:48:22.620Z,7.22
2023-03-05T06:49:54.394Z,7.26
2023-03-05T06:51:27.409Z,7.28
2023-03-05T06:52:59.055Z,7.32
2023-03-05T06:54:30.596Z,7.31
2023-03-05T06:56:02.350Z,7.36
2023-03-05T06:57:33.999Z,7.45
2023-03-05T06:59:08.137Z,7.52
2023-03-05T07:00:39.690Z,7.56
2023-03-05T07:02:13.627Z,7.62
2023-03-05T07:03:45.646Z,7.68
2023-03-05T07:05:17.590Z,7.70
2023-03-05T07:06:49.388Z,7.68
2023-03-05T07:08:21.056Z,7.72
2023-03-05T07:09:53.806Z,7.76
2023-03-05T07:11:25.741Z,7.82
2023-03-05T07:12:57.567Z,7.87
2023-03-05T07:14:32.195Z,7.90
2023-03-05T07:16:05.443Z,7.93
2023-03-05T07:17:37.060Z,7.95
2023-03-05T07:19:11.436Z,7.95
2023-03-05T07:20:43.135Z,7.94
2023-03-05T07:22:15.113Z,7.98
2023-03-05T07:23:46.785Z,7.99
2023-03-05T07:25:21.546Z,8.00
2023-03-05T07:26:53.382Z,8.07
2023-03-05T07:28:25.006Z,8.11
2023-03-05T07:29:58.082Z,8.11
2023-03-05T07:31:32.688Z,8.15
2023-03-05T07:33:04.440Z,8.19
2023-03-05T07:34:37.832Z,8.20
2023-03-05T07:36:10.057Z,8.22
2023-03-05T07:37:41.800Z,8.19
2023-03-05T07:39:14.950Z,8.17
2023-03-05T07:40:49.826Z,8.20
2023-03-05T07:42:21.930Z,8.25
2023-03-05T07:44:01.033Z,8.30
2023-03-05T07:45:34.321Z,8.34
2023-03-05T07:47:06.143Z,8.37
2023-03-05T07:48:39.530Z,8.34
2023-03-05T07:50:11.652Z,8.33
2023-03-05T07:51:43.297Z,8.36
2023-03-05T07:53:15.339Z,8.38
2023-03-05T07:54:47.002Z,8.44
2023-03-05T07:56:22.586Z,8.48
2023-03-05T07:57:54.292Z,8.48
2023-03-05T07:59:25.878Z,8.49
2023-03-05T08:00:58.878Z,8.45
2023-03-05T08:02:30.500Z,8.47
2023-03-05T08:04:02.604Z,8.51
2023-03-05T08:05:34.189Z,8.59
2023-03-05T08:07:05.998Z,8.66
2023-03-05T08:08:38.332Z,8.68
2023-03-05T08:10:10.669Z,8.72
2023-03-05T08:11:42.443Z,8.75
2023-03-05T08:13:14.092Z,8.80
2023-03-05T08:14:45.746Z,8.78
2023-03-05T08:16:21.937Z,8.72
2023-03-05T08:17:53.625Z,8.72
2023-03-05T08:19:25.204Z,8.75
2023-03-05T08:20:56.904Z,8.82
2023-03-05T08:22:28.547Z,8.89
2023-03-05T08:24:00.748Z,8.94
2023-03-05T08:25:32.754Z,9.00
2023-03-05T08:27:06.300Z,9.04
2023-03-05T08:28:38.329Z,9.01
2023-03-05T08:30:12.976Z,8.99
2023-03-05T08:31:46.826Z,8.86
2023-03-05T08:33:18.702Z,8.78
2023-03-05T08:34:50.321Z,8.77
2023-03-05T08:36:22.193Z,8.82
2023-03-05T08:37:53.790Z,8.88
2023-03-05T08:39:25.685Z,8.91
2023-03-05T08:40:57.456Z,8.98
2023-03-05T08:42:29.065Z,8.97
2023-03-05T08:44:01.318Z,8.94
2023-03-05T08:45:33.156Z,8.93
2023-03-05T08:47:06.355Z,8.82
2023-03-05T08:48:38.049Z,8.69
2023-03-05T08:50:10.195Z,8.56
2023-03-05T08:51:43.318Z,8.51
2023-03-05T08:53:15.357Z,8.58
2023-03-05T08:54:50.233Z,8.61
2023-03-05T08:56:22.515Z,8.55
2023-03-05T08:57:54.163Z,8.36
2023-03-05T08:59:25.748Z,8.37
2023-03-05T09:00:57.484Z,8.54
2023-03-05T09:02:31.335Z,8.52
2023-03-05T09:04:04.012Z,8.32
2023-03-05T09:05:39.096Z,8.21
2023-03-05T09:07:11.483Z,7.83
2023-03-05T09:08:43.295Z,7.69
2023-03-05T09:10:15.128Z,7.48
2023-03-05T09:11:49.387Z,7.60
2023-03-05T09:13:21.005Z,7.64
2023-03-05T09:14:54.162Z,7.67
2023-03-05T09:16:25.899Z,7.61
2023-03-05T09:18:01.341Z,7.61
2023-03-05T09:19:33.108Z,7.55
2023-03-05T09:21:04.817Z,7.52
2023-03-05T09:22:37.563Z,7.37
2023-03-05T09:24:09.319Z,7.31
2023-03-05T09:25:41.437Z,7.23
2023-03-05T09:27:13.021Z,7.22
2023-03-05T09:28:47.312Z,7.28
2023-03-05T09:30:19.209Z,7.30
2023-03-05T09:31:51.354Z,7.38
2023-03-05T09:33:24.686Z,7.17
2023-03-05T09:34:56.841Z,7.19
2023-03-05T09:36:30.382Z,7.23
2023-03-05T09:38:02.665Z,7.34
2023-03-05T09:39:34.350Z,7.57
2023-03-05T09:41:07.935Z,7.90
2023-03-05T09:42:57.443Z,8.06
2023-03-05T09:44:35.038Z,8.13
2023-03-05T09:46:13.476Z,8.19
2023-03-05T09:47:48.901Z,8.33
2023-03-05T09:49:30.610Z,8.52
2023-03-05T09:51:03.287Z,8.53
2023-03-05T09:52:38.256Z,8.48
2023-03-05T09:54:13.111Z,8.53
2023-03-05T09:55:47.174Z,8.61
2023-03-05T09:57:22.857Z,8.66
2023-03-05T09:58:57.400Z,8.58
2023-03-05T10:00:33.309Z,8.49
2023-03-05T10:02:11.729Z,8.42
2023-03-05T10:03:48.895Z,8.34
2023-03-05T10:05:26.108Z,8.26
2023-03-05T10:07:00.808Z,8.32
2023-03-05T10:08:39.122Z,8.31
2023-03-05T10:10:14.209Z,8.22
2023-03-05T10:11:49.605Z,8.12
2023-03-05T10:13:24.383Z,8.30
2023-03-05T10:14:57.318Z,8.37
2023-03-05T10:16:39.653Z,8.34
2023-03-05T10:18:18.492Z,8.46
2023-03-05T10:20:04.052Z,8.53
2023-03-05T10:21:50.349Z,8.54
2023-03-05T10:23:39.944Z,8.52
2023-03-05T10:25:17.287Z,8.49
2023-03-05T10:26:57.574Z,8.37
2023-03-05T10:28:33.950Z,7.99
2023-03-05T10:30:13.281Z,7.78
2023-03-05T10:31:58.371Z,7.78
2023-03-05T10:33:35.402Z,7.83
2023-03-05T10:35:20.445Z,7.86
2023-03-05T10:36:58.679Z,7.84
2023-03-05T10:38:38.523Z,7.84
2023-03-05T10:40:18.828Z,7.84
2023-03-05T10:41:56.247Z,7.80
2023-03-05T10:43:34.498Z,7.79
2023-03-05T10:45:14.181Z,7.90
2023-03-05T10:46:47.179Z,7.89
2023-03-05T10:48:25.858Z,7.84
2023-03-05T10:49:58.723Z,7.87
2023-03-05T10:51:34.293Z,7.99
2023-03-05T10:53:14.168Z,8.08
2023-03-05T10:54:45.797Z,8.21
2023-03-05T10:56:19.751Z,8.39
2023-03-05T10:57:51.377Z,8.52
2023-03-05T10:59:23.059Z,8.62
2023-03-05T11:00:58.621Z,8.79
2023-03-05T11:02:30.364Z,8.51
2023-03-05T11:04:06.345Z,8.35
2023-03-05T11:05:42.767Z,8.34
2023-03-05T11:07:30.349Z,8.35
2023-03-05T11:09:19.859Z,8.34
2023-03-05T11:11:04.160Z,8.37
2023-03-05T11:12:36.495Z,8.49
2023-03-05T11:14:22.148Z,8.73
2023-03-05T11:15:59.335Z,8.73
2023-03-05T11:17:33.078Z,8.67
2023-03-05T11:19:19.396Z,8.59
2023-03-05T11:20:51.485Z,8.66
2023-03-05T11:22:23.738Z,8.83
2023-03-05T11:24:05.975Z,8.87
2023-03-05T11:25:51.227Z,8.87
2023-03-05T11:27:24.958Z,8.97
2023-03-05T11:28:59.708Z,9.11
2023-03-05T11:30:32.855Z,9.00
2023-03-05T11:32:16.943Z,9.06
2023-03-05T11:33:57.016Z,9.04
2023-03-05T11:35:32.986Z,8.93
2023-03-05T11:37:06.469Z,8.95
2023-03-05T11:38:45.205Z,9.07
2023-03-05T11:40:21.123Z,9.24
2023-03-05T11:41:56.683Z,9.39
2023-03-05T11:43:29.892Z,9.52
2023-03-05T11:45:02.629Z,9.55
2023-03-05T11:46:38.609Z,9.43
2023-03-05T11:48:13.720Z,9.33
2023-03-05T11:49:46.312Z,9.07
2023-03-05T11:51:20.830Z,8.83
2023-03-05T11:52:54.587Z,8.83
2023-03-05T11:54:29.770Z,8.91
2023-03-05T11:56:04.197Z,8.95
2023-03-05T11:57:42.701Z,9.03
2023-03-05T11:59:16.521Z,9.11
2023-03-05T12:00:48.716Z,9.27
2023-03-05T12:02:21.874Z,9.39
2023-03-05T12:03:53.674Z,9.36
2023-03-05T12:05:26.668Z,9.29
2023-03-05T12:07:00.471Z,9.31
2023-03-05T12:08:34.560Z,9.33
2023-03-05T12:10:06.798Z,9.42
2023-03-05T12:11:38.725Z,9.61
2023-03-05T12:13:15.505Z,9.67
2023-03-05T12:14:50.667Z,9.63
2023-03-05T12:16:26.334Z,9.62
2023-03-05T12:18:04.373Z,9.68
2023-03-05T12:19:41.272Z,9.78
2023-03-05T12:21:17.060Z,9.93
2023-03-05T12:22:49.849Z,10.05
2023-03-05T12:24:38.041Z,10.14
2023-03-05T12:26:09.863Z,10.01
2023-03-05T12:27:41.672Z,9.95
2023-03-05T12:29:28.320Z,10.00
2023-03-05T12:31:02.038Z,10.10
2023-03-05T12:32:57.988Z,9.79
2023-03-05T12:34:39.318Z,9.43
2023-03-05T12:36:29.272Z,9.31
2023-03-05T12:38:24.251Z,9.24
2023-03-05T12:40:01.308Z,9.17
2023-03-05T12:41:34.721Z,9.16
2023-03-05T12:43:06.609Z,9.38
2023-03-05T12:44:39.785Z,9.66
2023-03-05T12:46:26.038Z,9.83
2023-03-05T12:48:16.559Z,9.84
2023-03-05T12:49:48.679Z,9.69
2023-03-05T12:51:38.140Z,9.70
2023-03-05T12:53:11.122Z,9.76
2023-03-05T12:54:43.416Z,9.85
2023-03-05T12:56:19.736Z,9.91
2023-03-05T12:57:55.785Z,9.87
2023-03-05T12:59:39.253Z,9.85
2023-03-05T13:01:32.005Z,9.87
2023-03-05T13:03:08.458Z,9.82
2023-03-05T13:04:43.338Z,9.59
2023-03-05T13:06:26.076Z,9.45
2023-03-05T13:08:10.039Z,9.38
2023-03-05T13:09:51.109Z,9.33
2023-03-05T13:11:22.777Z,9.39
2023-03-05T13:12:55.696Z,9.46
2023-03-05T13:14:33.366Z,9.52
2023-03-05T13:16:05.538Z,9.59
2023-03-05T13:17:40.769Z,9.57
2023-03-05T13:19:16.674Z,9.41
2023-03-05T13:20:52.214Z,9.33
2023-03-05T13:22:24.684Z,9.34
2023-03-05T13:24:00.544Z,9.45
2023-03-05T13:25:32.716Z,9.61
2023-03-05T13:27:19.068Z,9.75
2023-03-05T13:29:07.173Z,9.70
2023-03-05T13:30:39.018Z,9.61
2023-03-05T13:32:22.743Z,9.54
2023-03-05T13:33:56.539Z,9.30
2023-03-05T13:35:29.775Z,9.20
2023-03-05T13:37:02.590Z,9.21
2023-03-05T13:38:39.015Z,9.26
2023-03-05T13:40:18.955Z,9.29
2023-03-05T13:42:01.940Z,9.25
2023-03-05T13:43:34.157Z,9.34
2023-03-05T13:45:20.297Z,9.41
2023-03-05T13:46:52.139Z,9.39
2023-03-05T13:48:26.096Z,9.43
2023-03-05T13:50:00.171Z,9.50
2023-03-05T13:51:41.987Z,9.62
2023-03-05T13:53:15.737Z,9.75
2023-03-05T13:54:47.536Z,9.93
2023-03-05T13:56:20.139Z,10.06
2023-03-05T13:57:53.165Z,10.13
2023-03-05T13:59:25.629Z,10.00
2023-03-05T14:01:04.268Z,9.93
2023-03-05T14:02:36.104Z,9.86
2023-03-05T14:04:09.952Z,9.81
2023-03-05T14:05:45.399Z,9.84
2023-03-05T14:07:27.944Z,10.02
2023-03-05T14:09:04.942Z,10.20
2023-03-05T14:10:37.945Z,10.35
2023-03-05T14:12:21.352Z,10.34
2023-03-05T14:13:58.414Z,10.27
2023-03-05T14:15:31.337Z,10.16
2023-03-05T14:17:21.144Z,10.00
2023-03-05T14:18:57.481Z,9.96
2023-03-05T14:20:29.870Z,10.03
2023-03-05T14:22:05.111Z,10.16
2023-03-05T14:23:39.189Z,10.27
2023-03-05T14:25:25.930Z,10.37
2023-03-05T14:26:58.054Z,10.39
2023-03-05T14:28:29.878Z,10.31
2023-03-05T14:30:01.907Z,10.29
2023-03-05T14:31:36.627Z,10.12
2023-03-05T14:33:08.294Z,9.97
2023-03-05T14:34:41.425Z,9.88
2023-03-05T14:36:13.116Z,9.84
2023-03-05T14:37:49.237Z,9.83
2023-03-05T14:39:26.521Z,9.85
2023-03-05T14:40:58.133Z,9.87
2023-03-05T14:42:31.629Z,9.93
2023-03-05T14:44:13.975Z,9.97
2023-03-05T14:45:46.674Z,10.01
2023-03-05T14:47:18.674Z,10.06
2023-03-05T14:48:50.822Z,10.08
2023-03-05T14:50:23.537Z,10.03
2023-03-05T14:51:55.202Z,9.93
2023-03-05T14:53:35.151Z,9.87
2023-03-05T14:55:07.078Z,9.85
2023-03-05T14:56:38.791Z,9.83
2023-03-05T14:58:12.876Z,9.84
2023-03-05T14:59:44.814Z,9.86
2023-03-05T15:01:16.546Z,9.88
2023-03-05T15:02:48.450Z,9.90
2023-03-05T15:04:20.335Z,9.94
2023-03-05T15:05:54.195Z,9.97
2023-03-05T15:07:29.138Z,10.02
2023-03-05T15:09:04.208Z,10.05
2023-03-05T15:10:35.934Z,10.07
2023-03-05T15:12:07.776Z,9.96
2023-03-05T15:13:39.851Z,9.85
2023-03-05T15:15:13.141Z,9.80
2023-03-05T15:16:45.736Z,9.79
2023-03-05T15:18:18.434Z,9.82
2023-03-05T15:19:50.242Z,9.81
2023-03-05T15:21:22.023Z,9.82
2023-03-05T15:22:53.696Z,9.84
2023-03-05T15:24:26.698Z,9.83
2023-03-05T15:25:58.538Z,9.83
2023-03-05T15:27:30.303Z,9.87
2023-03-05T15:29:01.971Z,9.95
2023-03-05T15:30:34.924Z,10.01
2023-03-05T15:32:07.213Z,10.02
2023-03-05T15:33:38.996Z,10.03
2023-03-05T15:35:10.791Z,10.00
2023-03-05T15:36:42.769Z,10.03
2023-03-05T15:38:16.129Z,10.07
2023-03-05T15:39:49.391Z,10.11
2023-03-05T15:41:22.270Z,10.18
2023-03-05T15:42:54.436Z,10.15
2023-03-05T15:44:26.741Z,10.06
2023-03-05T15:45:58.420Z,10.02
2023-03-05T15:47:33.103Z,10.03
2023-03-05T15:49:05.363Z,10.07
2023-03-05T15:50:39.827Z,10.10
2023-03-05T15:52:12.593Z,10.08
2023-03-05T15:53:46.409Z,10.09
2023-03-05T15:55:19.904Z,10.10
2023-03-05T15:56:52.758Z,10.10
2023-03-05T15:58:24.637Z,10.12
2023-03-05T15:59:57.619Z,10.15
2023-03-05T16:01:29.472Z,10.15
2023-03-05T16:03:01.177Z,10.13
2023-03-05T16:04:33.037Z,10.08
2023-03-05T16:06:06.147Z,10.00
2023-03-05T16:07:39.429Z,10.01
2023-03-05T16:09:11.349Z,10.06
2023-03-05T16:10:46.589Z,10.09
2023-03-05T16:12:20.015Z,10.04
2023-03-05T16:13:51.937Z,10.00
2023-03-05T16:15:24.997Z,9.88
2023-03-05T16:16:58.452Z,9.89
2023-03-05T16:18:30.510Z,9.88
2023-03-05T16:20:03.882Z,9.84
2023-03-05T16:21:35.681Z,9.79
2023-03-05T16:23:07.363Z,9.75
2023-03-05T16:24:39.390Z,9.71
2023-03-05T16:26:12.593Z,9.73
2023-03-05T16:27:46.448Z,9.78
2023-03-05T16:29:18.252Z,9.81
2023-03-05T16:30:53.401Z,9.81
2023-03-05T16:32:27.796Z,9.76
2023-03-05T16:34:01.357Z,9.71
2023-03-05T16:35:33.053Z,9.68
2023-03-05T16:37:06.863Z,9.62
2023-03-05T16:38:38.651Z,9.57
2023-03-05T16:40:11.964Z,9.55
2023-03-05T16:41:44.952Z,9.53
2023-03-05T16:43:16.584Z,9.51
2023-03-05T16:44:49.931Z,9.51
2023-03-05T16:46:22.063Z,9.51
2023-03-05T16:47:56.667Z,9.48
2023-03-05T16:49:28.649Z,9.49
2023-03-05T16:51:00.606Z,9.52
2023-03-05T16:52:34.371Z,9.54
2023-03-05T16:54:06.357Z,9.59
2023-03-05T16:55:39.359Z,9.62
2023-03-05T16:57:12.330Z,9.67
2023-03-05T16:58:44.351Z,9.71
2023-03-05T17:00:19.043Z,9.74
2023-03-05T17:01:50.724Z,9.73
2023-03-05T17:03:22.538Z,9.70
2023-03-05T17:04:55.966Z,9.72
2023-03-05T17:06:28.876Z,9.69
2023-03-05T17:08:02.169Z,9.68
2023-03-05T17:09:34.312Z,9.66
2023-03-05T17:11:05.935Z,9.62
2023-03-05T17:12:39.143Z,9.58
2023-03-05T17:14:11.100Z,9.55
2023-03-05T17:17:15.331Z,9.55
2023-03-05T17:18:47.516Z,9.51
2023-03-05T17:20:20.133Z,9.45
2023-03-05T17:21:52.317Z,9.37
2023-03-05T17:23:24.411Z,9.29
2023-03-05T17:24:56.081Z,9.24
2023-03-05T17:26:27.699Z,9.15
2023-03-05T17:28:00.879Z,9.06
2023-03-05T17:29:32.481Z,8.96
2023-03-05T17:31:04.801Z,8.88
2023-03-05T17:32:36.442Z,8.86
2023-03-05T17:34:08.261Z,8.79
2023-03-05T17:35:40.222Z,8.74
2023-03-05T17:37:11.955Z,8.69
2023-03-05T17:38:44.099Z,8.70
2023-03-05T17:40:16.307Z,8.66
2023-03-05T17:41:47.977Z,8.60
2023-03-05T17:43:21.097Z,8.57
2023-03-05T17:44:52.932Z,8.58
2023-03-05T17:46:24.651Z,8.59
2023-03-05T17:47:57.742Z,8.62
2023-03-05T17:49:30.317Z,8.65
2023-03-05T17:51:01.933Z,8.71
2023-03-05T17:52:33.755Z,8.73
2023-03-05T17:54:05.731Z,8.75
2023-03-05T17:55:38.540Z,8.76
2023-03-05T17:57:10.174Z,8.76
2023-03-05T17:58:43.799Z,8.76
2023-03-05T18:00:17.056Z,8.72
2023-03-05T18:01:48.876Z,8.71
2023-03-05T18:03:20.469Z,8.72
2023-03-05T18:04:52.540Z,8.70
2023-03-05T18:06:24.235Z,8.70
2023-03-05T18:07:55.975Z,8.68
2023-03-05T18:09:27.615Z,8.66
2023-03-05T18:11:00.116Z,8.70
2023-03-05T18:12:31.822Z,8.76
2023-03-05T18:14:04.836Z,8.81
2023-03-05T18:15:38.221Z,8.86
2023-03-05T18:17:09.851Z,8.83
2023-03-05T18:18:41.558Z,8.87
2023-03-05T18:20:23.492Z,8.87
2023-03-05T18:21:55.094Z,8.86
2023-03-05T18:23:26.676Z,8.82
2023-03-05T18:24:58.509Z,8.82
2023-03-05T18:26:30.080Z,8.83
2023-03-05T18:28:02.569Z,8.82
2023-03-05T18:29:35.678Z,8.82
2023-03-05T18:31:07.456Z,8.83
2023-03-05T18:32:39.260Z,8.86
2023-03-05T18:34:10.898Z,8.87
2023-03-05T18:35:42.680Z,8.87
2023-03-05T18:37:14.424Z,8.87
2023-03-05T18:38:46.084Z,8.88
2023-03-05T18:40:19.615Z,8.88
2023-03-05T18:41:51.804Z,8.91
2023-03-05T18:43:24.362Z,8.91
2023-03-05T18:44:57.382Z,8.87
2023-03-05T18:46:28.976Z,8.80
2023-03-05T18:48:00.747Z,8.77
2023-03-05T18:49:32.373Z,8.77
2023-03-05T18:51:04.406Z,8.80
2023-03-05T18:52:36.557Z,8.84
2023-03-05T18:54:08.347Z,8.80
2023-03-05T18:55:42.769Z,8.78
2023-03-05T18:57:14.440Z,8.80
2023-03-05T18:58:47.717Z,8.84
2023-03-05T19:00:21.753Z,8.86
2023-03-05T19:01:53.465Z,8.87
2023-03-05T19:03:25.388Z,8.84
2023-03-05T19:04:59.323Z,8.83
2023-03-05T19:06:31.275Z,8.78
2023-03-05T19:08:02.945Z,8.72
2023-03-05T19:09:54.751Z,8.70
2023-03-05T19:11:26.490Z,8.68
2023-03-05T19:13:15.949Z,8.69
2023-03-05T19:14:47.551Z,8.65
2023-03-05T19:16:21.944Z,8.61
2023-03-05T19:17:54.905Z,8.57
2023-03-05T19:19:26.887Z,8.55
2023-03-05T19:20:58.613Z,8.57
2023-03-05T19:22:32.437Z,8.46
2023-03-05T19:24:04.295Z,8.41
2023-03-05T19:25:36.641Z,8.38
2023-03-05T19:27:13.148Z,8.40
2023-03-05T19:28:45.156Z,8.43
2023-03-05T19:30:17.516Z,8.39
2023-03-05T19:31:50.534Z,8.33
2023-03-05T19:33:24.174Z,8.29
2023-03-05T19:34:57.340Z,8.35
2023-03-05T19:36:29.221Z,8.38
2023-03-05T19:38:01.162Z,8.40
2023-03-05T19:39:33.328Z,8.37
2023-03-05T19:41:05.629Z,8.41
2023-03-05T19:42:39.218Z,8.47
2023-03-05T19:44:12.401Z,8.51
2023-03-05T19:45:44.140Z,8.53
2023-03-05T19:47:17.246Z,8.49
2023-03-05T19:48:49.124Z,8.51
2023-03-05T19:50:20.998Z,8.51
2023-03-05T19:51:52.770Z,8.49
2023-03-05T19:53:24.819Z,8.48
2023-03-05T19:54:56.963Z,8.46
2023-03-05T19:56:28.733Z,8.48
2023-03-05T19:58:01.229Z,8.47
2023-03-05T19:59:32.883Z,8.40
2023-03-05T20:01:09.122Z,8.39
2023-03-05T20:02:42.048Z,8.37
2023-03-05T20:04:14.676Z,8.33
2023-03-05T20:05:46.324Z,8.28
2023-03-05T20:07:18.000Z,8.27
2023-03-05T20:08:49.785Z,8.28
2023-03-05T20:10:22.695Z,8.32
2023-03-05T20:11:54.555Z,8.33
2023-03-05T20:13:26.614Z,8.34
2023-03-05T20:14:58.365Z,8.36
2023-03-05T20:16:31.349Z,8.37
2023-03-05T20:18:04.526Z,8.42
2023-03-05T20:19:36.460Z,8.43
2023-03-05T20:21:08.078Z,8.40
2023-03-05T20:22:41.037Z,8.41
2023-03-05T20:24:13.909Z,8.37
2023-03-05T20:25:45.671Z,8.32
2023-03-05T20:27:17.315Z,8.25
2023-03-05T20:28:49.839Z,8.22
2023-03-05T20:30:21.728Z,8.24
2023-03-05T20:31:54.094Z,8.25
2023-03-05T20:33:27.805Z,8.27
2023-03-05T20:34:59.491Z,8.29
2023-03-05T20:36:34.584Z,8.26
2023-03-05T20:38:27.448Z,8.26
2023-03-05T20:39:59.185Z,8.29
2023-03-05T20:41:31.550Z,8.30
2023-03-05T20:43:06.105Z,8.34
2023-03-05T20:44:37.790Z,8.36